createdAt,value
2018-05-08T00:00:56.929Z,54.80
2018-05-08T00:03:26.470Z,54.80
2018-05-08T00:05:55.251Z,54.80
2018-05-08T00:08:24.012Z,54.30
2018-05-08T00:10:57.295Z,53.60
2018-05-08T00:13:26.101Z,53.40
2018-05-08T00:15:54.868Z,53.70
2018-05-08T00:18:23.621Z,54.00
2018-05-08T00:21:02.356Z,53.50
2018-05-08T00:23:31.512Z,53.90
2018-05-08T00:26:01.024Z,52.60
2018-05-08T00:28:29.977Z,52.60
2018-05-08T00:31:09.350Z,52.40
2018-05-08T00:33:38.078Z,52.60
2018-05-08T00:36:07.632Z,52.50
2018-05-08T00:38:37.002Z,52.50
2018-05-08T00:41:08.797Z,53.60
2018-05-08T00:43:38.576Z,53.00
2018-05-08T00:46:07.391Z,53.00
2018-05-08T00:48:36.927Z,53.10
2018-05-08T00:51:05.755Z,53.10
2018-05-08T00:53:34.545Z,52.90
2018-05-08T00:56:03.670Z,52.80
2018-05-08T00:58:34.494Z,52.80
2018-05-08T01:01:04.476Z,52.70
2018-05-08T01:03:33.237Z,52.60
2018-05-08T01:06:02.030Z,53.20
2018-05-08T01:08:30.795Z,53.80
2018-05-08T01:11:00.303Z,55.00
2018-05-08T01:13:29.081Z,55.00
2018-05-08T01:15:58.605Z,54.20
2018-05-08T01:18:27.340Z,53.90
2018-05-08T01:20:56.113Z,54.40
2018-05-08T01:23:24.884Z,54.10
2018-05-08T01:25:53.635Z,53.60
2018-05-08T01:28:22.448Z,52.90
2018-05-08T01:30:52.333Z,52.00
2018-05-08T01:33:21.072Z,51.90
2018-05-08T01:35:49.849Z,52.70
2018-05-08T01:38:18.623Z,53.20
2018-05-08T01:40:48.826Z,52.80
2018-05-08T01:43:17.827Z,52.80
2018-05-08T01:45:46.528Z,52.70
2018-05-08T01:48:16.521Z,54.10
2018-05-08T01:50:46.236Z,54.10
2018-05-08T01:53:14.987Z,53.90
2018-05-08T01:55:43.744Z,54.40
2018-05-08T01:58:12.526Z,54.60
2018-05-08T02:00:42.257Z,54.50
2018-05-08T02:03:12.126Z,54.00
2018-05-08T02:05:40.908Z,53.40
2018-05-08T02:08:09.693Z,53.30
2018-05-08T02:10:38.615Z,53.10
2018-05-08T02:13:08.129Z,53.60
2018-05-08T02:15:37.738Z,54.60
2018-05-08T02:18:06.513Z,54.50
2018-05-08T02:20:36.032Z,56.50
2018-05-08T02:23:04.945Z,56.40
2018-05-08T02:25:33.714Z,56.40
2018-05-08T02:28:03.233Z,56.00
2018-05-08T02:30:32.010Z,56.00
2018-05-08T02:33:00.816Z,55.80
2018-05-08T02:35:29.571Z,55.20
2018-05-08T02:37:58.336Z,54.70
2018-05-08T02:40:27.886Z,54.90
2018-05-08T02:42:57.107Z,55.80
2018-05-08T02:45:25.879Z,55.50
2018-05-08T02:47:54.705Z,55.40
2018-05-08T02:50:23.481Z,56.50
2018-05-08T02:52:52.256Z,56.90
2018-05-08T02:55:21.750Z,56.90
2018-05-08T02:57:50.510Z,57.00
2018-05-08T03:00:20.908Z,56.30
2018-05-08T03:02:49.669Z,56.30
2018-05-08T03:05:19.175Z,56.10
2018-05-08T03:07:48.005Z,56.40
2018-05-08T03:10:16.829Z,56.00
2018-05-08T03:12:45.608Z,56.20
2018-05-08T03:15:14.349Z,55.20
2018-05-08T03:17:43.448Z,55.20
2018-05-08T03:20:12.933Z,55.00
2018-05-08T03:22:43.550Z,54.20
2018-05-08T03:25:12.830Z,54.20
2018-05-08T03:27:41.556Z,54.50
2018-05-08T03:30:10.349Z,54.40
2018-05-08T03:32:39.094Z,55.10
2018-05-08T03:35:07.877Z,55.70
2018-05-08T03:37:36.647Z,56.30
2018-05-08T03:40:05.422Z,56.30
2018-05-08T03:42:34.319Z,55.50
2018-05-08T03:45:03.140Z,55.70
2018-05-08T03:47:31.928Z,56.70
2018-05-08T03:50:00.784Z,57.70
2018-05-08T03:52:29.585Z,57.30
2018-05-08T03:54:58.357Z,56.50
2018-05-08T03:57:27.189Z,56.40
2018-05-08T03:59:55.939Z,55.00
2018-05-08T04:02:36.564Z,55.40
2018-05-08T04:05:17.185Z,54.70
2018-05-08T04:07:57.720Z,53.90
2018-05-08T04:10:26.573Z,54.10
2018-05-08T04:12:55.327Z,54.40
2018-05-08T04:15:24.194Z,53.50
2018-05-08T04:17:52.894Z,53.60
2018-05-08T04:20:21.759Z,53.90
2018-05-08T04:22:50.505Z,52.60
2018-05-08T04:25:20.055Z,53.10
2018-05-08T04:27:49.545Z,52.00
2018-05-08T04:30:19.037Z,52.00
2018-05-08T04:32:47.854Z,51.90
2018-05-08T04:35:17.341Z,52.80
2018-05-08T04:37:46.141Z,52.70
2018-05-08T04:40:15.675Z,51.30
2018-05-08T04:42:44.413Z,51.30
2018-05-08T04:45:13.284Z,51.60
2018-05-08T04:47:42.070Z,51.40
2018-05-08T04:50:10.841Z,51.00
2018-05-08T04:52:39.585Z,51.30
2018-05-08T04:55:08.355Z,50.00
2018-05-08T04:57:37.104Z,50.70
2018-05-08T05:00:05.830Z,50.50
2018-05-08T05:02:34.698Z,50.00
2018-05-08T05:05:03.412Z,49.50
2018-05-08T05:07:32.162Z,49.70
2018-05-08T05:10:00.903Z,49.80
2018-05-08T05:12:29.666Z,49.20
2018-05-08T05:14:58.429Z,50.00
2018-05-08T05:17:27.214Z,49.00
2018-05-08T05:19:55.973Z,49.20
2018-05-08T05:22:25.508Z,48.60
2018-05-08T05:24:54.353Z,48.60
2018-05-08T05:27:24.180Z,48.80
2018-05-08T05:29:52.939Z,48.80
2018-05-08T05:32:21.708Z,48.40
2018-05-08T05:34:51.281Z,48.00
2018-05-08T05:37:20.875Z,48.20
2018-05-08T05:39:49.735Z,48.20
2018-05-08T05:42:18.468Z,48.50
2018-05-08T05:44:47.245Z,47.70
2018-05-08T05:47:17.327Z,47.60
2018-05-08T05:49:46.833Z,48.50
2018-05-08T05:52:17.490Z,47.20
2018-05-08T05:54:46.850Z,47.10
2018-05-08T05:57:15.628Z,47.20
2018-05-08T05:59:44.623Z,47.30
2018-05-08T06:02:13.384Z,46.50
2018-05-08T06:04:42.205Z,46.90
2018-05-08T06:07:11.062Z,47.70
2018-05-08T06:09:40.572Z,46.00
2018-05-08T06:12:09.321Z,46.00
2018-05-08T06:14:38.086Z,47.00
2018-05-08T06:17:06.869Z,47.00
2018-05-08T06:19:35.710Z,46.40
2018-05-08T06:22:04.475Z,45.80
2018-05-08T06:24:33.203Z,45.10
2018-05-08T06:27:01.947Z,45.80
2018-05-08T06:29:30.700Z,46.00
2018-05-08T06:31:59.490Z,45.90
2018-05-08T06:34:28.232Z,45.30
2018-05-08T06:36:56.993Z,45.30
2018-05-08T06:39:25.795Z,44.40
2018-05-08T06:41:54.557Z,45.30
2018-05-08T06:44:23.449Z,45.10
2018-05-08T06:46:52.183Z,45.10
2018-05-08T06:49:20.981Z,44.80
2018-05-08T06:51:49.778Z,44.90
2018-05-08T06:54:18.544Z,44.40
2018-05-08T06:56:47.438Z,43.30
2018-05-08T06:59:16.229Z,42.30
2018-05-08T07:01:45.028Z,42.60
2018-05-08T07:04:13.768Z,43.10
2018-05-08T07:06:42.575Z,43.30
2018-05-08T07:09:11.414Z,42.10
2018-05-08T07:11:40.131Z,41.60
2018-05-08T07:14:09.346Z,42.90
2018-05-08T07:16:38.891Z,42.70
2018-05-08T07:19:08.435Z,40.70
2018-05-08T07:21:37.260Z,40.70
2018-05-08T07:24:06.120Z,41.60
2018-05-08T07:26:34.845Z,40.40
2018-05-08T07:29:03.749Z,40.30
2018-05-08T07:31:32.510Z,41.10
2018-05-08T07:34:01.276Z,40.90
2018-05-08T07:36:30.078Z,39.50
2018-05-08T07:38:58.917Z,40.00
2018-05-08T07:41:27.714Z,40.30
2018-05-08T07:43:56.498Z,40.90
2018-05-08T07:46:26.385Z,39.90
2018-05-08T07:48:55.879Z,39.90
2018-05-08T07:51:24.669Z,40.50
2018-05-08T07:53:53.452Z,39.70
2018-05-08T07:56:22.217Z,38.60
2018-05-08T07:58:51.015Z,38.30
2018-05-08T08:01:19.786Z,39.10
2018-05-08T08:03:48.539Z,39.50
2018-05-08T08:06:18.241Z,39.90
2018-05-08T08:08:47.024Z,39.10
2018-05-08T08:11:15.830Z,39.90
2018-05-08T08:13:45.409Z,39.40
2018-05-08T08:16:14.243Z,39.20
2018-05-08T08:18:43.862Z,38.30
2018-05-08T08:21:12.630Z,38.20
2018-05-08T08:23:41.426Z,38.60
2018-05-08T08:26:10.936Z,38.80
2018-05-08T08:28:39.742Z,38.60
2018-05-08T08:31:08.534Z,37.90
2018-05-08T08:33:37.321Z,39.40
2018-05-08T08:36:06.660Z,36.40
2018-05-08T08:38:35.570Z,38.20
2018-05-08T08:41:04.361Z,37.60
2018-05-08T08:43:33.162Z,37.40
2018-05-08T08:46:02.752Z,36.60
2018-05-08T08:48:31.536Z,36.50
2018-05-08T08:51:01.142Z,36.50
2018-05-08T08:53:29.983Z,36.40
2018-05-08T08:55:59.526Z,36.30
2018-05-08T08:58:28.408Z,36.20
2018-05-08T09:00:57.316Z,37.70
2018-05-08T09:03:26.112Z,37.80
2018-05-08T09:05:54.876Z,36.00
2018-05-08T09:08:23.659Z,35.40
2018-05-08T09:10:52.423Z,36.20
2018-05-08T09:13:21.177Z,35.60
2018-05-08T09:15:49.953Z,34.80
2018-05-08T09:18:18.846Z,37.00
2018-05-08T09:20:48.786Z,36.70
2018-05-08T09:23:17.583Z,36.80
2018-05-08T09:25:51.398Z,36.10
2018-05-08T09:28:20.144Z,34.30
2018-05-08T09:30:48.936Z,35.40
2018-05-08T09:33:21.208Z,36.90
2018-05-08T09:35:57.543Z,36.80
2018-05-08T09:38:27.111Z,34.20
2018-05-08T09:40:55.900Z,35.40
2018-05-08T09:43:24.671Z,35.50
2018-05-08T09:45:54.958Z,36.40
2018-05-08T09:48:26.790Z,34.20
2018-05-08T09:50:55.658Z,34.20
2018-05-08T09:53:24.408Z,33.60
2018-05-08T09:55:59.047Z,35.00
2018-05-08T09:58:27.790Z,35.00
2018-05-08T10:00:56.754Z,34.70
2018-05-08T10:03:25.453Z,34.80
2018-05-08T10:05:54.235Z,35.20
2018-05-08T10:08:23.312Z,34.50
2018-05-08T10:10:52.150Z,34.80
2018-05-08T10:13:20.880Z,35.30
2018-05-08T10:15:49.742Z,35.10
2018-05-08T10:18:19.377Z,34.00
2018-05-08T10:20:48.173Z,34.40
2018-05-08T10:23:17.025Z,35.40
2018-05-08T10:25:46.638Z,35.00
2018-05-08T10:28:15.427Z,35.00
2018-05-08T10:30:44.223Z,35.70
2018-05-08T10:33:13.014Z,35.10
2018-05-08T10:35:41.793Z,34.50
2018-05-08T10:38:10.572Z,36.80
2018-05-08T10:40:39.332Z,35.60
2018-05-08T10:43:08.899Z,35.50
2018-05-08T10:45:37.740Z,35.40
2018-05-08T10:48:06.537Z,34.80
2018-05-08T10:50:35.310Z,32.90
2018-05-08T10:53:04.161Z,32.20
2018-05-08T10:55:32.936Z,34.60
2018-05-08T10:58:01.717Z,31.80
2018-05-08T11:00:30.487Z,33.40
2018-05-08T11:02:59.997Z,32.60
2018-05-08T11:05:30.671Z,32.60
2018-05-08T11:08:00.116Z,32.60
2018-05-08T11:10:28.851Z,34.90
2018-05-08T11:12:57.588Z,33.50
2018-05-08T11:15:26.385Z,33.20
2018-05-08T11:17:55.184Z,34.20
2018-05-08T11:20:25.389Z,34.50
2018-05-08T11:22:54.172Z,34.50
2018-05-08T11:25:22.962Z,35.60
2018-05-08T11:27:51.743Z,33.90
2018-05-08T11:30:20.483Z,33.40
2018-05-08T11:32:49.956Z,33.10
2018-05-08T11:35:18.713Z,34.70
2018-05-08T11:37:47.490Z,35.10
2018-05-08T11:40:17.031Z,35.10
2018-05-08T11:42:45.906Z,34.40
2018-05-08T11:45:14.686Z,34.10
2018-05-08T11:47:43.481Z,35.80
2018-05-08T11:50:12.238Z,36.00
2018-05-08T11:52:40.999Z,33.40
2018-05-08T11:55:09.756Z,34.50
2018-05-08T11:57:38.543Z,34.30
2018-05-08T12:00:07.300Z,34.20
2018-05-08T12:02:36.160Z,32.80
2018-05-08T12:05:05.620Z,35.70
2018-05-08T12:07:34.433Z,35.70
2018-05-08T12:10:03.451Z,34.20
2018-05-08T12:12:32.216Z,33.40
2018-05-08T12:15:00.955Z,33.50
2018-05-08T12:17:31.029Z,33.80
2018-05-08T12:20:04.725Z,33.80
2018-05-08T12:22:33.459Z,36.00
2018-05-08T12:25:03.035Z,34.90
2018-05-08T12:27:36.162Z,34.90
2018-05-08T12:30:11.679Z,34.80
2018-05-08T12:32:41.252Z,34.70
2018-05-08T12:35:10.821Z,34.80
2018-05-08T12:37:41.694Z,34.80
2018-05-08T12:40:15.668Z,35.50
2018-05-08T12:42:44.447Z,35.70
2018-05-08T12:45:13.199Z,35.60
2018-05-08T12:47:46.897Z,35.60
2018-05-08T12:50:20.469Z,36.40
2018-05-08T12:52:49.612Z,36.30
2018-05-08T12:55:18.565Z,35.70
2018-05-08T12:57:52.209Z,36.40
2018-05-08T13:00:28.240Z,36.60
2018-05-08T13:02:57.000Z,36.50
2018-05-08T13:05:25.782Z,35.80
2018-05-08T13:10:33.369Z,37.20
2018-05-08T13:13:02.158Z,39.00
2018-05-08T13:15:31.452Z,40.10
2018-05-08T13:18:03.487Z,41.20
2018-05-08T13:20:35.015Z,43.20
2018-05-08T13:23:04.116Z,46.00
2018-05-08T13:25:32.895Z,46.30
2018-05-08T13:30:35.599Z,43.00
2018-05-08T13:33:04.418Z,38.80
2018-05-08T13:35:33.918Z,40.20
2018-05-08T13:38:06.617Z,40.00
2018-05-08T13:40:35.541Z,38.70
2018-05-08T13:43:05.048Z,42.50
2018-05-08T13:45:35.279Z,42.30
2018-05-08T13:48:09.252Z,41.50
2018-05-08T13:50:38.598Z,42.00
2018-05-08T13:53:07.902Z,43.30
2018-05-08T13:55:36.752Z,41.60
2018-05-08T13:58:12.792Z,42.60
2018-05-08T14:00:43.581Z,43.80
2018-05-08T14:03:12.649Z,46.30
2018-05-08T14:05:42.199Z,45.30
2018-05-08T14:08:13.766Z,45.60
2018-05-08T14:10:48.975Z,45.60
2018-05-08T14:13:17.729Z,47.30
2018-05-08T14:15:47.263Z,47.90
2018-05-08T14:18:21.284Z,47.50
2018-05-08T14:20:53.360Z,47.80
2018-05-08T14:23:22.646Z,47.70
2018-05-08T14:25:51.870Z,49.00
2018-05-08T14:28:24.147Z,48.20
2018-05-08T14:30:53.043Z,48.00
2018-05-08T14:33:22.789Z,48.00
2018-05-08T14:35:53.427Z,46.70
2018-05-08T14:38:24.623Z,46.60
2018-05-08T14:40:55.406Z,45.90
2018-05-08T14:43:24.149Z,45.10
2018-05-08T14:45:52.904Z,44.60
2018-05-08T14:48:21.954Z,44.80
2018-05-08T14:50:50.772Z,44.10
2018-05-08T14:53:21.920Z,43.60
2018-05-08T14:55:51.430Z,41.50
2018-05-08T14:58:20.174Z,41.50
2018-05-08T15:00:48.955Z,41.80
2018-05-08T15:03:18.461Z,40.60
2018-05-08T15:05:47.230Z,40.70
2018-05-08T15:08:16.066Z,39.50
2018-05-08T15:10:44.844Z,40.60
2018-05-08T15:13:13.664Z,40.40
2018-05-08T15:15:42.933Z,39.90
2018-05-08T15:18:11.784Z,39.90
2018-05-08T15:20:40.560Z,40.50
2018-05-08T15:23:10.195Z,41.20
2018-05-08T15:25:39.278Z,40.10
2018-05-08T15:28:08.268Z,39.80
2018-05-08T15:30:37.345Z,39.40
2018-05-08T15:33:06.210Z,39.80
2018-05-08T15:35:34.979Z,39.90
2018-05-08T15:38:03.744Z,39.50
2018-05-08T15:40:32.498Z,38.80
2018-05-08T15:43:02.518Z,39.70
2018-05-08T15:45:31.379Z,41.00
2018-05-08T15:48:00.210Z,40.10
2018-05-08T15:50:30.299Z,40.50
2018-05-08T15:52:59.706Z,38.90
2018-05-08T15:55:28.544Z,38.50
2018-05-08T15:57:58.207Z,40.50
2018-05-08T16:00:27.025Z,40.20
2018-05-08T16:02:58.007Z,39.50
2018-05-08T16:05:26.881Z,40.40
2018-05-08T16:07:57.270Z,40.20
2018-05-08T16:10:26.041Z,40.90
2018-05-08T16:12:56.736Z,41.50
2018-05-08T16:15:26.796Z,42.10
2018-05-08T16:17:57.601Z,42.40
2018-05-08T16:20:27.005Z,42.40
2018-05-08T16:22:55.752Z,42.60
2018-05-08T16:25:25.277Z,43.30
2018-05-08T16:27:54.021Z,43.30
2018-05-08T16:30:24.590Z,43.60
2018-05-08T16:32:53.631Z,44.70
2018-05-08T16:35:24.455Z,46.20
2018-05-08T16:37:54.260Z,46.20
2018-05-08T16:40:23.689Z,46.90
2018-05-08T16:42:52.504Z,45.80
2018-05-08T16:45:24.640Z,45.40
2018-05-08T16:47:54.464Z,45.40
2018-05-08T16:50:23.864Z,44.90
2018-05-08T16:52:53.946Z,44.40
2018-05-08T16:55:23.768Z,44.70
2018-05-08T16:57:52.562Z,45.30
2018-05-08T17:00:21.326Z,45.90
2018-05-08T17:02:51.716Z,46.90
2018-05-08T17:05:22.172Z,46.90
2018-05-08T17:07:51.582Z,46.20
2018-05-08T17:10:21.198Z,47.50
2018-05-08T17:12:51.726Z,46.60
2018-05-08T17:15:21.510Z,47.20
2018-05-08T17:17:50.902Z,46.80
2018-05-08T17:20:20.876Z,46.60
2018-05-08T17:22:49.672Z,47.10
2018-05-08T17:25:19.978Z,47.00
2018-05-08T17:27:48.769Z,47.00
2018-05-08T17:30:23.860Z,48.00
2018-05-08T17:32:53.344Z,48.00
2018-05-08T17:35:22.090Z,48.80
2018-05-08T17:37:51.717Z,49.40
2018-05-08T17:40:21.786Z,49.40
2018-05-08T17:42:56.307Z,50.40
2018-05-08T17:45:25.384Z,50.70
2018-05-08T17:47:54.450Z,50.50
2018-05-08T17:50:27.412Z,50.80
2018-05-08T17:53:00.538Z,50.80
2018-05-08T17:55:29.354Z,51.40
2018-05-08T17:57:58.837Z,51.20
2018-05-08T18:00:32.558Z,51.10
2018-05-08T18:03:05.745Z,50.40
2018-05-08T18:05:36.336Z,50.40
2018-05-08T18:08:05.860Z,51.10
2018-05-08T18:10:37.844Z,51.00
2018-05-08T18:13:11.332Z,50.70
2018-05-08T18:15:41.021Z,50.40
2018-05-08T18:18:10.673Z,49.80
2018-05-08T18:20:43.728Z,49.70
2018-05-08T18:23:19.590Z,50.20
2018-05-08T18:25:50.201Z,50.00
2018-05-08T18:28:19.722Z,50.60
2018-05-08T18:30:48.549Z,51.10
2018-05-08T18:33:22.139Z,50.90
2018-05-08T18:35:51.933Z,51.20
2018-05-08T18:38:20.793Z,51.10
2018-05-08T18:43:33.747Z,51.30
2018-05-08T18:46:02.847Z,51.20
2018-05-08T18:48:31.804Z,51.20
2018-05-08T18:51:09.361Z,52.20
2018-05-08T18:53:38.333Z,52.70
2018-05-08T18:56:07.097Z,52.40
2018-05-08T18:58:35.900Z,51.90
2018-05-08T19:01:04.724Z,52.10
2018-05-08T19:03:33.500Z,52.20
2018-05-08T19:06:02.263Z,51.80
2018-05-08T19:08:30.996Z,51.60
2018-05-08T19:11:05.288Z,51.90
2018-05-08T19:13:34.513Z,52.10
2018-05-08T19:16:06.870Z,51.90
2018-05-08T19:18:41.201Z,51.60
2018-05-08T19:21:10.037Z,51.50
2018-05-08T19:23:38.800Z,51.70
2018-05-08T19:26:08.326Z,51.60
2018-05-08T19:28:42.780Z,51.00
2018-05-08T19:31:12.047Z,50.70
2018-05-08T19:33:40.811Z,51.10
2018-05-08T19:36:15.222Z,51.00
2018-05-08T19:38:43.972Z,50.70
2018-05-08T19:41:15.105Z,51.20
2018-05-08T19:43:44.561Z,51.20
2018-05-08T19:46:13.344Z,50.40
2018-05-08T19:48:42.849Z,50.00
2018-05-08T19:51:11.605Z,50.10
2018-05-08T19:53:40.356Z,50.60
2018-05-08T19:56:09.979Z,49.80
2018-05-08T19:58:38.663Z,49.70
2018-05-08T20:01:08.260Z,49.60
2018-05-08T20:03:37.772Z,49.50
2018-05-08T20:06:07.240Z,49.30
2018-05-08T20:08:36.486Z,48.90
2018-05-08T20:11:06.078Z,48.20
2018-05-08T20:13:34.869Z,48.20
2018-05-08T20:16:04.701Z,47.80
2018-05-08T20:18:33.983Z,47.80
2018-05-08T20:21:04.361Z,48.10
2018-05-08T20:23:33.127Z,48.10
2018-05-08T20:26:01.913Z,48.30
2018-05-08T20:28:32.988Z,47.90
2018-05-08T20:31:03.487Z,47.80
2018-05-08T20:33:32.235Z,48.20
2018-05-08T20:36:01.713Z,48.40
2018-05-08T20:38:31.332Z,48.50
2018-05-08T20:41:00.061Z,48.40
2018-05-08T20:43:28.850Z,49.30
2018-05-08T20:45:57.621Z,49.00
2018-05-08T20:48:27.140Z,49.40
2018-05-08T20:50:55.902Z,49.40
2018-05-08T20:53:25.734Z,49.60
2018-05-08T20:55:54.640Z,49.40
2018-05-08T20:58:24.145Z,49.70
2018-05-08T21:00:53.053Z,49.60
2018-05-08T21:03:22.441Z,49.50
2018-05-08T21:05:53.279Z,49.50
2018-05-08T21:08:22.848Z,49.70
2018-05-08T21:10:54.050Z,50.50
2018-05-08T21:13:22.874Z,50.50
2018-05-08T21:15:52.154Z,50.60
2018-05-08T21:18:21.381Z,51.00
2018-05-08T21:20:50.630Z,50.80
2018-05-08T21:23:19.576Z,50.80
2018-05-08T21:25:48.365Z,50.70
2018-05-08T21:31:17.596Z,51.10
2018-05-08T21:33:46.333Z,51.50
2018-05-08T21:36:15.091Z,51.70
2018-05-08T21:38:44.607Z,52.90
2018-05-08T21:41:13.681Z,52.80
2018-05-08T21:43:42.460Z,53.60
2018-05-08T21:46:12.409Z,55.10
2018-05-08T21:51:14.694Z,55.40
2018-05-08T21:53:43.457Z,55.50
2018-05-08T21:56:12.248Z,55.40
2018-05-08T21:58:41.043Z,55.30
2018-05-08T22:01:09.793Z,54.70
2018-05-08T22:03:38.560Z,55.90
2018-05-08T22:06:07.988Z,56.10
2018-05-08T22:08:36.733Z,55.70
2018-05-08T22:11:06.579Z,54.90
2018-05-08T22:13:35.944Z,54.40
2018-05-08T22:16:05.509Z,54.90
2018-05-08T22:18:34.312Z,54.90
2018-05-08T22:21:04.702Z,54.60
2018-05-08T22:23:33.437Z,54.30
2018-05-08T22:26:04.986Z,55.30
2018-05-08T22:28:33.737Z,54.90
2018-05-08T22:31:03.006Z,55.10
2018-05-08T22:33:31.774Z,55.30
2018-05-08T22:36:00.584Z,55.70
2018-05-08T22:38:29.339Z,55.30
2018-05-08T22:40:58.202Z,55.30
2018-05-08T22:43:26.970Z,55.20
2018-05-08T22:45:56.601Z,55.90
2018-05-08T22:48:27.308Z,55.40
2018-05-08T22:50:56.583Z,55.60
2018-05-08T22:53:25.348Z,55.30
2018-05-08T22:55:54.116Z,55.80
2018-05-08T22:58:23.948Z,56.80
2018-05-08T23:00:53.510Z,57.90
2018-05-08T23:03:23.554Z,58.50
2018-05-08T23:05:53.305Z,58.50
2018-05-08T23:08:22.604Z,57.90
2018-05-08T23:10:52.081Z,57.20
2018-05-08T23:13:20.852Z,57.30
2018-05-08T23:15:50.441Z,57.40
2018-05-08T23:18:20.828Z,57.60
2018-05-08T23:20:49.614Z,57.50
2018-05-08T23:23:18.517Z,58.40
2018-05-08T23:25:48.348Z,58.80
2018-05-08T23:28:17.111Z,58.70
2018-05-08T23:30:46.652Z,60.50
2018-05-08T23:33:15.409Z,60.50
2018-05-08T23:35:44.147Z,59.90
2018-05-08T23:38:12.887Z,59.40
2018-05-08T23:40:42.481Z,59.40
2018-05-08T23:43:12.456Z,59.20
2018-05-08T23:45:41.168Z,59.30
2018-05-08T23:48:11.253Z,59.10
2018-05-08T23:50:40.215Z,59.20
2018-05-08T23:53:09.201Z,59.20
2018-05-08T23:55:38.873Z,59.30
2018-05-08T23:58:08.316Z,59.50
